Hlavní strana
METAR-TAF:

METAR-TAF

Letiště :

Tri-Cities Regional Airport

Bristol / Johnson / Kingsport, Tennessee, Spojené státy americké

zeměpisná šířka: 36-28-47N, zeměpisná délka: 082-23-56W, výška: 463 m

Aktuální stav počasí

Zpráva byla vytvořena před 40 minutami, v 10:09 UTC
Severoseverovýchodní vítr 9 kt s nárazy do 14 kt
Teplota 11°C
Vlhkost vzduchu 71%
Tlak 1019 hPa
Viditelnost: 16.1 km
Oblačno až skoro zataženo ve výšce 2800 ft
Zataženo ve výšce 7500 ft

METAR: KTRI 251009Z 02009G14KT 10SM BKN028 OVC075 11/06 A3010 RMK AO2 T01060056

Čas: 05:49 (10:49 UTC)

Předpověď počasí

Zpráva byla vytvořena před 31 minutami, v 10:18 UTC
Předpověď platná od 25 v 10 UTC do 26 v 06 UTC
Severoseverovýchodní vítr 8 kt
Viditelnost: 10 km
Oblačno až skoro zataženo ve výšce 2500 ft
Od 25 v 1400 UTC
Severní vítr 6 kt
Viditelnost: 10 km
Polojasno ve výšce 20000 ft

TAF: KTRI 251018Z 2510/2606 02008KT P6SM BKN025 FM251400 01006KT P6SM SCT200

Stav a předpovědi počasí z více než 4 000 letišť (zprávy METAR a TAF).

Červené a žluté tečky na mapě představují dostupné meteorologické stanice.

Když kurzor umístíte na tečku, zobrazí se název stanice.

Pak kliknutím zobrazíte stav a předpověď počasí.

Chcete-li změnit mapu, kliknutím na zelené tlačítko se znaménkem +mapu přiblížíte, kliknutím na zelené tlačítko se znaménkem – mapu oddálíte a kliknutím na zelené šipky přejdete na sousední mapy.


METAR-TAF: